Terminal Aerodrome Forecast
Issued by NWS

Home | Current Version | Previous Version | Text Only | Print | Product List | Glossary On
Versions: 1 2 3 4 5 6 7 8 9 10 11 12 13 14 15 16 17 18 19 20 21 22 23 24 25 26 27
000
FTUS41 KCAR 011200 AAB
TAFHUL
TAF AMD
KHUL 011258Z 0113/0212 VRB03KT P6SM BKN010 OVC022
     FM011800 07005KT P6SM BKN040
     FM020000 09006KT P6SM BKN025
     FM020200 09006KT P6SM BKN015
     FM020800 12004KT P6SM BKN003=

USA.gov is the U.S. government's official web portal to all federal, state and local government web resources and services.